createdAt,value
2017-12-23T00:00:15.002Z,779.48
2017-12-23T00:00:36.694Z,779.35
2017-12-23T00:00:58.406Z,779.30
2017-12-23T00:01:20.101Z,779.50
2017-12-23T00:01:41.798Z,779.21
2017-12-23T00:02:08.270Z,779.32
2017-12-23T00:02:29.958Z,779.27
2017-12-23T00:02:51.648Z,779.56
2017-12-23T00:03:13.346Z,779.38
2017-12-23T00:03:39.826Z,779.52
2017-12-23T00:04:01.564Z,779.31
2017-12-23T00:04:23.266Z,779.14
2017-12-23T00:04:49.731Z,779.32
2017-12-23T00:05:11.411Z,779.32
2017-12-23T00:06:04.383Z,779.21
2017-12-23T00:06:26.080Z,779.28
2017-12-23T00:06:52.545Z,779.29
2017-12-23T00:07:14.229Z,779.33
2017-12-23T00:07:40.709Z,779.27
2017-12-23T00:08:02.406Z,779.23
2017-12-23T00:08:24.099Z,779.18
2017-12-23T00:08:45.800Z,779.28
2017-12-23T00:09:07.511Z,779.24
2017-12-23T00:09:29.195Z,779.12
2017-12-23T00:09:50.888Z,779.33
2017-12-23T00:10:12.580Z,779.37
2017-12-23T00:10:34.272Z,779.42
2017-12-23T00:10:55.970Z,779.53
2017-12-23T00:11:17.691Z,779.23
2017-12-23T00:11:39.387Z,779.22
2017-12-23T00:12:01.088Z,779.28
2017-12-23T00:12:22.782Z,779.54
2017-12-23T00:12:44.466Z,779.52
2017-12-23T00:13:06.157Z,779.54
2017-12-23T00:13:27.850Z,779.46
2017-12-23T00:13:49.544Z,779.60
2017-12-23T00:14:16.015Z,779.49
2017-12-23T00:14:37.724Z,779.27
2017-12-23T00:14:59.415Z,779.33
2017-12-23T00:15:21.120Z,779.31
2017-12-23T00:15:42.803Z,779.35
2017-12-23T00:16:04.497Z,779.35
2017-12-23T00:16:26.203Z,779.51
2017-12-23T00:16:47.866Z,779.51
2017-12-23T00:17:40.794Z,779.83
2017-12-23T00:18:02.494Z,779.77
2017-12-23T00:18:24.190Z,779.63
2017-12-23T00:18:45.884Z,779.44
2017-12-23T00:19:07.610Z,779.31
2017-12-23T00:19:34.087Z,779.51
2017-12-23T00:19:55.813Z,779.45
2017-12-23T00:20:17.508Z,779.23
2017-12-23T00:20:43.977Z,779.31
2017-12-23T00:21:05.673Z,779.39
2017-12-23T00:21:32.149Z,779.46
2017-12-23T00:21:53.837Z,779.39
2017-12-23T00:22:15.527Z,779.49
2017-12-23T00:22:37.222Z,779.41
2017-12-23T00:22:58.915Z,779.48
2017-12-23T00:23:20.615Z,779.68
2017-12-23T00:23:47.071Z,779.48
2017-12-23T00:24:08.769Z,779.53
2017-12-23T00:24:30.458Z,779.51
2017-12-23T00:24:52.151Z,779.48
2017-12-23T00:25:13.863Z,779.60
2017-12-23T00:25:35.564Z,779.58
2017-12-23T00:26:02.028Z,779.46
2017-12-23T00:26:23.722Z,779.60
2017-12-23T00:26:45.401Z,779.50
2017-12-23T00:27:07.116Z,779.65
2017-12-23T00:27:28.798Z,779.63
2017-12-23T00:27:55.272Z,779.77
2017-12-23T00:28:16.959Z,779.69
2017-12-23T00:28:38.657Z,779.61
2017-12-23T00:29:05.134Z,779.58
2017-12-23T00:29:26.819Z,779.76
2017-12-23T00:29:48.514Z,779.57
2017-12-23T00:30:10.208Z,779.53
2017-12-23T00:30:31.933Z,779.59
2017-12-23T00:30:58.403Z,779.47
2017-12-23T00:31:20.099Z,779.50
2017-12-23T00:31:41.793Z,779.48
2017-12-23T00:32:03.467Z,779.45
2017-12-23T00:32:25.153Z,779.37
2017-12-23T00:32:46.841Z,779.54
2017-12-23T00:33:13.330Z,779.43
2017-12-23T00:33:35.012Z,779.41
2017-12-23T00:33:56.712Z,779.21
2017-12-23T00:34:18.399Z,779.34
2017-12-23T00:34:40.087Z,779.43
2017-12-23T00:35:01.772Z,779.43
2017-12-23T00:35:23.462Z,779.39
2017-12-23T00:35:45.175Z,779.25
2017-12-23T00:36:06.866Z,779.24
2017-12-23T00:36:28.559Z,779.46
2017-12-23T00:36:50.246Z,779.38
2017-12-23T00:37:11.934Z,779.26
2017-12-23T00:37:33.631Z,779.40
2017-12-23T00:37:55.320Z,779.47
2017-12-23T00:38:17.013Z,779.39
2017-12-23T00:38:38.709Z,779.41
2017-12-23T00:39:00.401Z,779.48
2017-12-23T00:39:22.085Z,779.50
2017-12-23T00:39:43.779Z,779.48
2017-12-23T00:40:05.504Z,779.55
2017-12-23T00:40:27.158Z,779.47
2017-12-23T00:40:53.630Z,779.36
2017-12-23T00:41:15.320Z,779.46
2017-12-23T00:41:37.013Z,779.63
2017-12-23T00:41:58.709Z,779.78
2017-12-23T00:42:20.393Z,779.55
2017-12-23T00:42:42.091Z,779.51
2017-12-23T00:43:03.794Z,779.52
2017-12-23T00:43:25.485Z,779.39
2017-12-23T00:43:47.180Z,779.51
2017-12-23T00:44:08.878Z,779.78
2017-12-23T00:44:30.585Z,779.73
2017-12-23T00:44:52.292Z,779.42
2017-12-23T00:45:13.981Z,779.42
2017-12-23T00:45:35.673Z,779.51
2017-12-23T00:45:57.386Z,779.49
2017-12-23T00:46:19.087Z,779.59
2017-12-23T00:46:40.778Z,779.63
2017-12-23T00:47:02.463Z,779.56
2017-12-23T00:47:28.935Z,779.51
2017-12-23T00:47:50.624Z,779.52
2017-12-23T00:48:12.315Z,779.61
2017-12-23T00:48:38.788Z,779.54
2017-12-23T00:49:00.479Z,779.41
2017-12-23T00:49:22.237Z,779.50
2017-12-23T00:49:43.940Z,779.44
2017-12-23T00:50:05.636Z,779.44
2017-12-23T00:50:27.335Z,779.54
2017-12-23T00:50:49.030Z,779.43
2017-12-23T00:51:10.745Z,779.71
2017-12-23T00:51:32.436Z,779.65
2017-12-23T00:51:58.904Z,779.62
2017-12-23T00:52:20.592Z,779.59
2017-12-23T00:52:42.282Z,779.57
2017-12-23T00:53:03.985Z,779.75
2017-12-23T00:53:25.681Z,779.40
2017-12-23T00:53:47.371Z,779.68
2017-12-23T00:54:09.060Z,779.74
2017-12-23T00:54:30.746Z,779.71
2017-12-23T00:54:52.436Z,779.61
2017-12-23T00:55:14.132Z,779.80
2017-12-23T00:55:35.818Z,779.67
2017-12-23T00:55:57.509Z,779.54
2017-12-23T00:56:19.228Z,779.65
2017-12-23T00:56:40.915Z,779.40
2017-12-23T00:57:02.606Z,779.32
2017-12-23T00:57:24.382Z,779.48
2017-12-23T00:57:50.857Z,779.41
2017-12-23T00:58:12.546Z,779.41
2017-12-23T00:58:34.243Z,779.56
2017-12-23T00:58:55.934Z,779.41
2017-12-23T00:59:17.623Z,779.46
2017-12-23T00:59:39.320Z,779.32
2017-12-23T01:00:01.018Z,779.53
2017-12-23T01:00:22.698Z,779.39
2017-12-23T01:00:44.396Z,779.39
2017-12-23T01:01:06.088Z,779.47
2017-12-23T01:01:27.796Z,779.43
2017-12-23T01:02:26.130Z,779.48
2017-12-23T01:02:47.836Z,779.47
2017-12-23T01:03:09.533Z,779.65
2017-12-23T01:03:31.232Z,779.64
2017-12-23T01:03:52.923Z,779.68
2017-12-23T01:04:14.626Z,779.54
2017-12-23T01:04:36.322Z,779.70
2017-12-23T01:04:58.015Z,779.86
2017-12-23T01:05:19.712Z,779.80
2017-12-23T01:05:41.407Z,779.59
2017-12-23T01:06:03.099Z,779.81
2017-12-23T01:06:24.795Z,779.66
2017-12-23T01:06:46.491Z,779.65
2017-12-23T01:07:08.178Z,779.70
2017-12-23T01:07:29.883Z,779.46
2017-12-23T01:07:51.580Z,779.45
2017-12-23T01:08:13.271Z,779.54
2017-12-23T01:08:34.966Z,779.55
2017-12-23T01:08:56.662Z,779.57
2017-12-23T01:09:18.352Z,779.61
2017-12-23T01:09:40.048Z,779.59
2017-12-23T01:10:01.724Z,779.42
2017-12-23T01:10:28.204Z,779.52
2017-12-23T01:10:49.895Z,779.58
2017-12-23T01:11:11.587Z,779.64
2017-12-23T01:11:33.321Z,779.55
2017-12-23T01:11:55.010Z,779.74
2017-12-23T01:12:16.700Z,779.74
2017-12-23T01:13:15.060Z,779.63
2017-12-23T01:13:36.751Z,779.62
2017-12-23T01:13:58.445Z,779.40
2017-12-23T01:14:20.142Z,779.49
2017-12-23T01:14:41.826Z,779.58
2017-12-23T01:15:08.298Z,779.66
2017-12-23T01:15:29.980Z,779.73
2017-12-23T01:15:51.670Z,779.85
2017-12-23T01:16:13.376Z,779.74
2017-12-23T01:16:35.083Z,779.67
2017-12-23T01:16:56.776Z,779.76
2017-12-23T01:17:18.470Z,779.80
2017-12-23T01:17:40.153Z,779.56
2017-12-23T01:18:01.851Z,779.77
2017-12-23T01:18:28.327Z,779.82
2017-12-23T01:18:50.013Z,779.82
2017-12-23T01:19:11.709Z,779.74
2017-12-23T01:19:33.402Z,779.86
2017-12-23T01:19:55.091Z,779.74
2017-12-23T01:20:16.780Z,779.68
2017-12-23T01:21:09.726Z,779.62
2017-12-23T01:21:31.424Z,779.63
2017-12-23T01:21:53.143Z,779.67
2017-12-23T01:22:14.826Z,779.86
2017-12-23T01:22:41.302Z,779.85
2017-12-23T01:23:02.993Z,779.61
2017-12-23T01:23:24.681Z,779.73
2017-12-23T01:23:46.377Z,779.49
2017-12-23T01:24:08.067Z,779.45
2017-12-23T01:25:00.998Z,779.50
2017-12-23T01:25:22.690Z,779.45
2017-12-23T01:25:44.379Z,779.51
2017-12-23T01:26:06.071Z,779.69
2017-12-23T01:26:32.572Z,779.63
2017-12-23T01:26:54.262Z,779.66
2017-12-23T01:27:20.737Z,779.70
2017-12-23T01:27:42.421Z,779.72
2017-12-23T01:28:04.109Z,779.63
2017-12-23T01:28:25.808Z,779.84
2017-12-23T01:28:47.496Z,780.00
2017-12-23T01:29:09.177Z,779.68
2017-12-23T01:29:30.875Z,779.79
2017-12-23T01:29:57.350Z,779.63
2017-12-23T01:30:19.039Z,779.65
2017-12-23T01:30:40.736Z,779.78
2017-12-23T01:31:02.433Z,779.76
2017-12-23T01:31:24.118Z,779.68
2017-12-23T01:31:45.838Z,779.60
2017-12-23T01:32:38.792Z,779.57
2017-12-23T01:33:00.486Z,779.58
2017-12-23T01:33:22.180Z,779.35
2017-12-23T01:33:43.866Z,779.53
2017-12-23T01:34:05.559Z,779.65
2017-12-23T01:34:32.042Z,779.66
2017-12-23T01:34:53.718Z,779.60
2017-12-23T01:35:20.195Z,779.60
2017-12-23T01:35:41.890Z,779.57
2017-12-23T01:36:08.361Z,779.74
2017-12-23T01:36:30.049Z,779.53
2017-12-23T01:36:56.524Z,779.47
2017-12-23T01:37:18.210Z,779.42
2017-12-23T01:37:39.909Z,779.55
2017-12-23T01:38:01.598Z,779.44
2017-12-23T01:38:23.282Z,779.64
2017-12-23T01:38:44.985Z,779.82
2017-12-23T01:39:06.680Z,779.74
2017-12-23T01:39:33.155Z,779.79
2017-12-23T01:39:54.844Z,779.74
2017-12-23T01:40:16.542Z,779.76
2017-12-23T01:40:38.234Z,779.81
2017-12-23T01:40:59.927Z,779.81
2017-12-23T01:41:52.890Z,779.59
2017-12-23T01:42:14.586Z,779.55
2017-12-23T01:42:41.058Z,779.43
2017-12-23T01:43:02.747Z,779.55
2017-12-23T01:43:24.443Z,779.56
2017-12-23T01:43:46.139Z,779.65
2017-12-23T01:44:07.824Z,779.57
2017-12-23T01:44:34.308Z,779.60
2017-12-23T01:44:56.004Z,779.72
2017-12-23T01:45:17.693Z,779.48
2017-12-23T01:45:44.170Z,779.50
2017-12-23T01:46:05.859Z,779.41
2017-12-23T01:46:27.541Z,779.37
2017-12-23T01:46:49.245Z,779.36
2017-12-23T01:47:10.944Z,779.46
2017-12-23T01:47:32.628Z,779.47
2017-12-23T01:47:54.324Z,779.30
2017-12-23T01:48:16.031Z,779.55
2017-12-23T01:48:37.713Z,779.47
2017-12-23T01:48:59.413Z,779.46
2017-12-23T01:49:21.098Z,779.37
2017-12-23T01:49:42.791Z,779.52
2017-12-23T01:50:04.492Z,779.54
2017-12-23T01:50:26.174Z,779.59
2017-12-23T01:50:47.867Z,779.70
2017-12-23T01:51:09.554Z,779.65
2017-12-23T01:51:36.032Z,779.44
2017-12-23T01:51:57.746Z,779.45
2017-12-23T01:52:19.437Z,779.57
2017-12-23T01:52:45.911Z,779.46
2017-12-23T01:53:07.604Z,779.50
2017-12-23T01:53:29.305Z,779.72
2017-12-23T01:53:55.770Z,779.93
2017-12-23T01:54:17.453Z,779.89
2017-12-23T01:54:43.917Z,779.75
2017-12-23T01:55:05.604Z,779.87
2017-12-23T01:55:27.307Z,779.81
2017-12-23T01:55:53.775Z,779.64
2017-12-23T01:56:15.457Z,779.74
2017-12-23T01:57:08.416Z,779.90
2017-12-23T01:57:30.115Z,779.79
2017-12-23T01:57:51.811Z,779.55
2017-12-23T01:58:13.496Z,779.53
2017-12-23T01:58:35.181Z,779.60
2017-12-23T01:59:01.649Z,779.59
2017-12-23T01:59:23.332Z,779.57
2017-12-23T02:00:16.260Z,779.74
2017-12-23T02:00:37.961Z,779.63
2017-12-23T02:00:59.661Z,779.70
2017-12-23T02:01:21.351Z,779.82
2017-12-23T02:01:43.044Z,779.76
2017-12-23T02:02:04.734Z,779.60
2017-12-23T02:02:26.417Z,779.81
2017-12-23T02:03:24.767Z,779.51
2017-12-23T02:03:46.455Z,779.70
2017-12-23T02:04:08.153Z,779.73
2017-12-23T02:04:29.852Z,779.92
2017-12-23T02:04:51.544Z,780.13
2017-12-23T02:05:13.234Z,779.97
2017-12-23T02:05:34.937Z,779.97
2017-12-23T02:05:56.625Z,779.87
2017-12-23T02:06:18.313Z,779.82
2017-12-23T02:06:40.012Z,779.90
2017-12-23T02:07:01.701Z,779.72
2017-12-23T02:07:23.421Z,779.65
2017-12-23T02:07:45.114Z,779.67
2017-12-23T02:08:06.802Z,779.53
2017-12-23T02:08:28.498Z,779.57
2017-12-23T02:08:50.192Z,779.55
2017-12-23T02:09:11.877Z,779.53
2017-12-23T02:09:33.576Z,779.59
2017-12-23T02:09:55.268Z,779.75
2017-12-23T02:10:16.964Z,779.65
2017-12-23T02:10:38.650Z,779.73
2017-12-23T02:11:00.338Z,779.87
2017-12-23T02:11:22.042Z,779.81
2017-12-23T02:11:43.815Z,779.94
2017-12-23T02:12:05.513Z,779.89
2017-12-23T02:12:27.234Z,779.89
2017-12-23T02:12:48.917Z,779.86
2017-12-23T02:13:10.611Z,779.82
2017-12-23T02:13:32.315Z,779.90
2017-12-23T02:13:53.999Z,779.91
2017-12-23T02:14:15.694Z,779.82
2017-12-23T02:14:37.417Z,779.84
2017-12-23T02:14:59.108Z,779.71
2017-12-23T02:15:20.795Z,779.58
2017-12-23T02:16:13.721Z,779.59
2017-12-23T02:16:35.410Z,779.55
2017-12-23T02:16:57.108Z,779.75
2017-12-23T02:17:18.793Z,779.48
2017-12-23T02:17:45.273Z,779.61
2017-12-23T02:18:06.952Z,779.68
2017-12-23T02:18:28.646Z,779.71
2017-12-23T02:18:55.112Z,779.58
2017-12-23T02:19:16.795Z,779.64
2017-12-23T02:19:38.517Z,779.51
2017-12-23T02:20:04.996Z,779.80
2017-12-23T02:20:26.694Z,779.72
2017-12-23T02:20:48.397Z,779.79
2017-12-23T02:21:10.084Z,779.87
2017-12-23T02:21:31.771Z,779.94
2017-12-23T02:21:58.250Z,779.70
2017-12-23T02:22:19.931Z,779.63
2017-12-23T02:22:41.627Z,779.90
2017-12-23T02:23:03.319Z,779.85
2017-12-23T02:23:25.004Z,779.86
2017-12-23T02:23:46.700Z,779.70
2017-12-23T02:24:13.163Z,779.65
2017-12-23T02:24:34.848Z,779.64
2017-12-23T02:24:56.575Z,779.72
2017-12-23T02:25:18.269Z,779.94
2017-12-23T02:25:39.957Z,779.95
2017-12-23T02:26:06.433Z,779.91
2017-12-23T02:26:28.122Z,779.86
2017-12-23T02:26:54.599Z,779.98
2017-12-23T02:27:16.279Z,780.01
2017-12-23T02:27:37.981Z,779.91
2017-12-23T02:27:59.686Z,779.79
2017-12-23T02:28:21.362Z,779.89
2017-12-23T02:28:47.834Z,779.78
2017-12-23T02:29:09.530Z,779.79
2017-12-23T02:29:31.221Z,779.87
2017-12-23T02:29:57.725Z,779.86
2017-12-23T02:30:19.414Z,779.85
2017-12-23T02:30:41.110Z,779.82
2017-12-23T02:31:02.805Z,779.79
2017-12-23T02:31:24.488Z,779.86
2017-12-23T02:31:46.188Z,779.87
2017-12-23T02:32:07.883Z,779.75
2017-12-23T02:32:29.570Z,779.52
2017-12-23T02:32:51.271Z,779.65
2017-12-23T02:33:12.967Z,779.69
2017-12-23T02:33:34.656Z,779.66
2017-12-23T02:33:56.378Z,779.84
2017-12-23T02:34:22.813Z,779.77
2017-12-23T02:34:44.502Z,779.55
2017-12-23T02:35:06.475Z,779.68
2017-12-23T02:35:32.946Z,779.70
2017-12-23T02:35:54.632Z,779.59
2017-12-23T02:36:21.090Z,779.47
2017-12-23T02:36:42.785Z,779.60
2017-12-23T02:37:35.728Z,779.84
2017-12-23T02:37:57.426Z,779.86
2017-12-23T02:38:19.120Z,779.79
2017-12-23T02:38:40.807Z,779.86
2017-12-23T02:39:07.283Z,779.82
2017-12-23T02:39:28.967Z,779.86
2017-12-23T02:39:50.738Z,779.89
2017-12-23T02:40:12.459Z,779.80
2017-12-23T02:40:34.146Z,779.67
2017-12-23T02:40:55.839Z,779.78
2017-12-23T02:41:17.544Z,779.93
2017-12-23T02:41:39.224Z,779.85
2017-12-23T02:42:00.921Z,779.85
2017-12-23T02:42:22.609Z,779.98
2017-12-23T02:42:44.304Z,780.10
2017-12-23T02:43:05.997Z,779.93
2017-12-23T02:43:27.689Z,779.87
2017-12-23T02:43:54.146Z,779.81
2017-12-23T02:44:15.838Z,779.69
2017-12-23T02:44:37.534Z,779.80
2017-12-23T02:44:59.230Z,779.92
2017-12-23T02:45:20.952Z,779.87
2017-12-23T02:45:42.646Z,779.91
2017-12-23T02:46:04.348Z,779.99
2017-12-23T02:46:26.030Z,779.91
2017-12-23T02:46:47.725Z,780.00
2017-12-23T02:47:09.430Z,780.19
2017-12-23T02:47:31.106Z,779.90
2017-12-23T02:47:52.829Z,780.10
2017-12-23T02:48:19.292Z,780.06
2017-12-23T02:48:40.989Z,779.94
2017-12-23T02:49:07.457Z,780.05
2017-12-23T02:49:29.146Z,780.21
2017-12-23T02:50:22.099Z,779.94
2017-12-23T02:50:43.795Z,780.08
2017-12-23T02:51:05.492Z,780.07
2017-12-23T02:51:27.180Z,780.05
2017-12-23T02:51:48.868Z,780.07
2017-12-23T02:52:10.564Z,780.06
2017-12-23T02:52:32.247Z,780.02
2017-12-23T02:52:53.940Z,780.15
2017-12-23T02:53:15.631Z,780.00
2017-12-23T02:53:37.317Z,780.19
2017-12-23T02:53:59.022Z,780.06
2017-12-23T02:54:20.712Z,779.96
2017-12-23T02:54:42.395Z,779.84
2017-12-23T02:55:08.873Z,779.97
2017-12-23T02:55:30.600Z,779.94
2017-12-23T02:55:52.287Z,780.01
2017-12-23T02:56:13.986Z,779.85
2017-12-23T02:56:40.469Z,779.84
2017-12-23T02:57:02.145Z,779.64
2017-12-23T02:57:23.832Z,779.87
2017-12-23T02:57:45.586Z,779.80
2017-12-23T02:58:07.226Z,779.93
2017-12-23T02:58:28.914Z,779.98
2017-12-23T02:58:50.604Z,779.84
2017-12-23T02:59:12.289Z,779.90
2017-12-23T02:59:33.979Z,779.88
2017-12-23T03:00:00.440Z,779.87
2017-12-23T03:00:22.135Z,779.90
2017-12-23T03:01:15.075Z,779.77
2017-12-23T03:01:36.771Z,779.74
2017-12-23T03:01:58.483Z,779.81
2017-12-23T03:02:20.156Z,779.76
2017-12-23T03:02:41.849Z,779.77
2017-12-23T03:03:03.539Z,779.73
2017-12-23T03:03:25.227Z,779.85
2017-12-23T03:03:46.918Z,779.81
2017-12-23T03:04:08.604Z,779.93
2017-12-23T03:04:30.290Z,779.79
2017-12-23T03:04:56.773Z,779.88
2017-12-23T03:05:18.453Z,779.74
2017-12-23T03:05:40.151Z,779.72
2017-12-23T03:06:01.870Z,779.76
2017-12-23T03:06:23.566Z,779.91
2017-12-23T03:06:45.256Z,779.89
2017-12-23T03:07:06.952Z,779.81
2017-12-23T03:07:33.420Z,779.78
2017-12-23T03:07:55.107Z,779.82
2017-12-23T03:08:16.803Z,779.75
2017-12-23T03:08:38.497Z,779.86
2017-12-23T03:09:00.195Z,779.80
2017-12-23T03:09:21.893Z,779.75
2017-12-23T03:09:43.586Z,779.80
2017-12-23T03:10:05.279Z,779.77
2017-12-23T03:10:26.971Z,779.85
2017-12-23T03:10:48.671Z,779.95
2017-12-23T03:11:10.381Z,779.88
2017-12-23T03:12:03.317Z,779.84
2017-12-23T03:12:25.001Z,779.97
2017-12-23T03:12:46.696Z,779.92
2017-12-23T03:13:08.382Z,779.92
2017-12-23T03:13:30.069Z,779.78
2017-12-23T03:13:56.541Z,779.95
2017-12-23T03:14:18.218Z,779.94
2017-12-23T03:14:39.931Z,779.94
2017-12-23T03:15:01.629Z,779.87
2017-12-23T03:15:23.314Z,779.84
2017-12-23T03:15:45.010Z,780.00
2017-12-23T03:16:06.707Z,780.11
2017-12-23T03:16:28.397Z,780.19
2017-12-23T03:16:50.081Z,780.18
2017-12-23T03:17:11.778Z,780.22
2017-12-23T03:17:33.469Z,780.33
2017-12-23T03:17:55.152Z,780.14
2017-12-23T03:18:21.630Z,780.20
2017-12-23T03:18:43.314Z,780.11
2017-12-23T03:19:09.794Z,780.05
2017-12-23T03:19:31.481Z,780.01
2017-12-23T03:19:53.225Z,780.05
2017-12-23T03:20:14.922Z,780.20
2017-12-23T03:20:36.609Z,780.02
2017-12-23T03:21:03.084Z,780.17
2017-12-23T03:21:24.769Z,780.03
2017-12-23T03:21:51.246Z,779.89
2017-12-23T03:22:12.933Z,779.83
2017-12-23T03:22:39.413Z,779.78
2017-12-23T03:23:01.099Z,779.81
2017-12-23T03:23:22.788Z,779.70
2017-12-23T03:23:44.475Z,779.83
2017-12-23T03:24:06.180Z,779.66
2017-12-23T03:24:27.866Z,779.94
2017-12-23T03:24:49.558Z,779.99
2017-12-23T03:25:11.267Z,780.01
2017-12-23T03:25:32.949Z,779.97
2017-12-23T03:25:54.637Z,779.99
2017-12-23T03:26:16.329Z,779.95
2017-12-23T03:26:38.009Z,779.91
2017-12-23T03:26:59.703Z,779.94
2017-12-23T03:27:21.392Z,780.17
2017-12-23T03:27:43.091Z,780.03
2017-12-23T03:28:04.776Z,779.97
2017-12-23T03:28:57.718Z,780.05
2017-12-23T03:29:19.410Z,779.84
2017-12-23T03:29:41.108Z,779.79
2017-12-23T03:30:02.828Z,779.72
2017-12-23T03:30:24.513Z,779.65
2017-12-23T03:30:50.981Z,779.82
2017-12-23T03:31:12.667Z,779.78
2017-12-23T03:31:39.134Z,779.85
2017-12-23T03:32:00.817Z,779.86
2017-12-23T03:32:22.512Z,779.91
2017-12-23T03:32:44.213Z,779.79
2017-12-23T03:33:05.906Z,779.66
2017-12-23T03:33:58.844Z,779.94
2017-12-23T03:34:20.528Z,779.87
2017-12-23T03:34:42.224Z,779.67
2017-12-23T03:35:03.938Z,779.49
2017-12-23T03:35:25.629Z,779.56
2017-12-23T03:35:52.093Z,779.69
2017-12-23T03:36:13.785Z,779.62
2017-12-23T03:36:35.481Z,779.56
2017-12-23T03:36:57.186Z,779.73
2017-12-23T03:37:18.878Z,779.69
2017-12-23T03:37:40.566Z,779.71
2017-12-23T03:38:07.033Z,779.75
2017-12-23T03:38:28.719Z,779.74
2017-12-23T03:38:50.417Z,779.70
2017-12-23T03:39:16.890Z,779.84
2017-12-23T03:39:38.578Z,779.89
2017-12-23T03:40:00.271Z,779.85
2017-12-23T03:40:26.736Z,779.85
2017-12-23T03:40:48.427Z,779.87
2017-12-23T03:41:14.887Z,779.98
2017-12-23T03:41:36.575Z,779.98
2017-12-23T03:41:58.261Z,780.06
2017-12-23T03:42:19.961Z,779.82
2017-12-23T03:42:41.653Z,779.84
2017-12-23T03:43:03.342Z,780.02
2017-12-23T03:43:29.807Z,779.92
2017-12-23T03:43:51.484Z,779.95
2017-12-23T03:44:17.956Z,779.98
2017-12-23T03:44:39.643Z,780.17
2017-12-23T03:45:06.109Z,780.07
2017-12-23T03:45:27.823Z,779.95
2017-12-23T03:45:49.519Z,779.82
2017-12-23T03:46:15.999Z,779.79
2017-12-23T03:46:37.682Z,779.73
2017-12-23T03:46:59.371Z,779.67
2017-12-23T03:47:21.063Z,779.90
2017-12-23T03:47:42.751Z,780.03
2017-12-23T03:48:09.210Z,780.08
2017-12-23T03:48:30.899Z,780.15
2017-12-23T03:48:57.363Z,779.95
2017-12-23T03:49:19.047Z,779.96
2017-12-23T03:49:45.514Z,779.98
2017-12-23T03:50:07.199Z,779.96
2017-12-23T03:50:28.930Z,780.00
2017-12-23T03:50:55.394Z,779.97
2017-12-23T03:51:17.084Z,779.92
2017-12-23T03:51:43.543Z,779.88
2017-12-23T03:52:05.234Z,780.04
2017-12-23T03:52:26.929Z,779.97
2017-12-23T03:52:53.400Z,779.98
2017-12-23T03:53:15.096Z,780.10
2017-12-23T03:53:36.787Z,780.00
2017-12-23T03:54:03.251Z,780.10
2017-12-23T03:54:24.937Z,779.93
2017-12-23T03:54:51.411Z,779.92
2017-12-23T03:55:13.097Z,779.99
2017-12-23T03:55:34.817Z,780.02
2017-12-23T03:55:56.516Z,780.06
2017-12-23T03:56:18.206Z,780.12
2017-12-23T03:56:44.680Z,780.00
2017-12-23T03:57:06.372Z,780.07
2017-12-23T03:57:28.056Z,780.10
2017-12-23T03:57:49.764Z,779.84
2017-12-23T03:58:11.438Z,779.97
2017-12-23T03:58:37.904Z,779.89
2017-12-23T03:58:59.596Z,780.05
2017-12-23T03:59:21.278Z,780.10
2017-12-23T03:59:42.964Z,780.22
2017-12-23T04:00:04.659Z,780.07
2017-12-23T04:00:26.339Z,780.14
2017-12-23T04:00:48.052Z,780.19
2017-12-23T04:01:09.748Z,780.21
2017-12-23T04:01:31.432Z,780.04
2017-12-23T04:01:53.119Z,780.23
2017-12-23T04:02:14.819Z,780.05
2017-12-23T04:02:36.505Z,780.08
2017-12-23T04:02:58.194Z,780.24
2017-12-23T04:03:24.669Z,780.14
2017-12-23T04:03:46.356Z,780.08
2017-12-23T04:04:08.049Z,780.08
2017-12-23T04:04:34.519Z,780.13
2017-12-23T04:04:56.206Z,780.12
2017-12-23T04:05:17.889Z,780.13
2017-12-23T04:05:39.588Z,780.25
2017-12-23T04:06:01.301Z,780.43
2017-12-23T04:06:27.766Z,780.26
2017-12-23T04:06:49.456Z,780.32
2017-12-23T04:07:11.151Z,780.48
2017-12-23T04:07:37.639Z,780.34
2017-12-23T04:07:59.324Z,780.26
2017-12-23T04:08:52.262Z,780.09
2017-12-23T04:09:13.959Z,780.07
2017-12-23T04:09:35.650Z,780.11
2017-12-23T04:09:57.335Z,780.12
2017-12-23T04:10:23.805Z,780.05
2017-12-23T04:10:45.488Z,779.98
2017-12-23T04:11:07.230Z,780.07
2017-12-23T04:11:33.694Z,779.98
2017-12-23T04:11:55.374Z,780.05
2017-12-23T04:12:21.853Z,779.97
2017-12-23T04:12:43.539Z,780.11
2017-12-23T04:13:41.881Z,779.93
2017-12-23T04:14:03.573Z,779.79
2017-12-23T04:14:25.252Z,779.96
2017-12-23T04:14:46.954Z,780.10
2017-12-23T04:15:08.632Z,780.23
2017-12-23T04:15:30.315Z,780.31
2017-12-23T04:15:52.013Z,780.08
2017-12-23T04:16:13.725Z,780.11
2017-12-23T04:16:35.423Z,780.04
2017-12-23T04:16:57.120Z,780.07
2017-12-23T04:17:18.801Z,780.11
2017-12-23T04:18:11.743Z,780.15
2017-12-23T04:18:38.208Z,780.24
2017-12-23T04:18:59.894Z,780.30
2017-12-23T04:19:21.587Z,780.06
2017-12-23T04:19:48.064Z,780.12
2017-12-23T04:20:09.747Z,779.97
2017-12-23T04:20:36.226Z,780.19
2017-12-23T04:20:57.915Z,780.18
2017-12-23T04:21:19.630Z,780.01
2017-12-23T04:21:46.110Z,780.05
2017-12-23T04:22:07.796Z,780.16
2017-12-23T04:22:29.497Z,780.15
2017-12-23T04:22:51.187Z,780.02
2017-12-23T04:23:12.872Z,780.31
2017-12-23T04:23:34.560Z,780.19
2017-12-23T04:23:56.255Z,780.15
2017-12-23T04:24:17.940Z,780.18
2017-12-23T04:24:39.629Z,780.21
2017-12-23T04:25:01.347Z,780.27
2017-12-23T04:25:23.031Z,780.13
2017-12-23T04:25:44.736Z,780.10
2017-12-23T04:26:11.205Z,779.97
2017-12-23T04:26:32.916Z,780.16
2017-12-23T04:26:59.397Z,780.10
2017-12-23T04:27:21.078Z,780.17
2017-12-23T04:27:42.774Z,780.19
2017-12-23T04:28:04.477Z,780.21
2017-12-23T04:28:26.161Z,780.22
2017-12-23T04:28:47.860Z,780.15
2017-12-23T04:29:09.554Z,780.33
2017-12-23T04:29:31.240Z,780.28
2017-12-23T04:29:52.929Z,780.12
2017-12-23T04:30:14.626Z,780.34
2017-12-23T04:30:36.313Z,780.40
2017-12-23T04:30:58.008Z,780.28
2017-12-23T04:31:24.473Z,780.12
2017-12-23T04:31:46.178Z,780.15
2017-12-23T04:32:07.870Z,780.07
2017-12-23T04:32:29.566Z,780.16
2017-12-23T04:32:51.252Z,780.11
2017-12-23T04:33:17.717Z,780.30
2017-12-23T04:33:39.397Z,780.36
2017-12-23T04:34:05.862Z,780.28
2017-12-23T04:34:27.547Z,780.32
2017-12-23T04:34:49.228Z,780.47
2017-12-23T04:35:10.923Z,780.29
2017-12-23T04:35:32.606Z,780.31
2017-12-23T04:35:54.290Z,780.10
2017-12-23T04:36:47.248Z,780.00
2017-12-23T04:37:08.933Z,780.20
2017-12-23T04:37:35.396Z,780.24
2017-12-23T04:37:57.083Z,780.12
2017-12-23T04:38:18.769Z,780.02
2017-12-23T04:38:45.235Z,780.04
2017-12-23T04:39:06.922Z,780.04
2017-12-23T04:39:28.604Z,780.21
2017-12-23T04:39:50.303Z,780.28
2017-12-23T04:40:11.987Z,780.17
2017-12-23T04:40:33.690Z,780.23
2017-12-23T04:41:00.162Z,780.07
2017-12-23T04:41:21.848Z,780.03
2017-12-23T04:41:48.358Z,779.89
2017-12-23T04:42:10.054Z,780.00
2017-12-23T04:43:02.991Z,779.82
2017-12-23T04:43:24.689Z,780.04
2017-12-23T04:43:46.381Z,780.16
2017-12-23T04:44:08.067Z,779.91
2017-12-23T04:44:34.541Z,780.14
2017-12-23T04:44:56.222Z,780.03
2017-12-23T04:45:17.907Z,780.00
2017-12-23T04:45:39.598Z,780.02
2017-12-23T04:46:01.283Z,780.16
2017-12-23T04:46:27.749Z,780.02
2017-12-23T04:46:49.471Z,780.05
2017-12-23T04:47:42.402Z,780.22
2017-12-23T04:48:08.880Z,780.14
2017-12-23T04:48:30.565Z,780.22
2017-12-23T04:48:57.039Z,780.26
2017-12-23T04:49:18.730Z,780.23
2017-12-23T04:49:45.206Z,780.38
2017-12-23T04:50:06.890Z,780.37
2017-12-23T04:50:28.586Z,780.15
2017-12-23T04:50:50.280Z,780.20
2017-12-23T04:51:11.966Z,780.10
2017-12-23T04:51:33.655Z,780.21
2017-12-23T04:52:00.128Z,780.21
2017-12-23T04:52:21.815Z,780.13
2017-12-23T04:52:43.508Z,780.02